Decoded Metar for KVNW ( in ) (IATA:) | Meteo·Mobile Aviation Weather
aviador You're here:

KVNW Decoded Metar

in
Report Time2018-08-14 10:55:00
UTC Time2018-08-14 11:02:57
Flight Rules mvfr MVFR
WindCalm
Visibility8047 m
Phenomena:Mist
Clouds:N/A
CeilingNone
Temp16°C
Dew Point16°C (100% RH)
QNH1017 hPa
Raw Report
METAR KVNW 141055Z AUTO 00000KT 5SM BR CLR 16/16 A3002 RMK AO2=

Extra information for KVNW:More info

Social comments